Time;durP1;ratioP1;P1;durP2;ratioP2;P2;SDS_P1;SDS_P2;PMS_P1;PMS_P2;Temp;Humidity;BMP_temperature;BMP_pressure;BME280_temperature;BME280_humidity;BME280_pressure;Samples;Min_cycle;Max_cycle;Signal;HPM_P1;HPM_P2
2022/05/28 00:01:07;;;;;;;7.40;4.10;;;;;;;11.16;69.19;100975.03;5038429;28;20431;-64
2022/05/28 00:03:32;;;;;;;10.40;3.80;;;;;;;11.33;67.92;100978.69;5038570;28;20619;-64
2022/05/28 00:05:58;;;;;;;12.03;4.10;;;;;;;11.14;68.50;100981.97;5038357;28;20460;-64
2022/05/28 00:08:24;;;;;;;7.97;3.60;;;;;;;10.99;68.63;101000.91;5038369;28;20174;-64
2022/05/28 00:10:51;;;;;;;11.37;3.90;;;;;;;11.08;68.74;100995.81;5038685;28;20206;-64
2022/05/28 00:13:17;;;;;;;6.03;3.90;;;;;;;11.38;67.51;101000.50;5038187;28;20413;-64
2022/05/28 00:15:42;;;;;;;9.77;3.90;;;;;;;11.34;67.53;101003.94;5038092;28;20848;-65
2022/05/28 00:18:08;;;;;;;8.57;3.53;;;;;;;11.98;65.09;100995.00;5038675;28;20254;-64
2022/05/28 00:20:34;;;;;;;8.53;4.00;;;;;;;11.84;65.46;101007.91;5038143;28;20181;-65
2022/05/28 00:22:59;;;;;;;12.07;4.10;;;;;;;11.31;66.86;101016.94;5038088;28;20697;-65
2022/05/28 00:25:25;;;;;;;8.00;3.17;;;;;;;10.60;68.68;100995.22;5038486;28;20186;-65
2022/05/28 00:27:50;;;;;;;3.70;3.30;;;;;;;10.08;69.99;100977.94;5038077;28;20198;-65
2022/05/28 00:30:16;;;;;;;5.13;3.10;;;;;;;10.46;69.30;100974.19;5038124;28;20170;-65
2022/05/28 00:32:42;;;;;;;5.67;3.27;;;;;;;10.43;70.70;100959.38;5038376;28;20446;-65
2022/05/28 00:35:10;;;;;;;6.47;3.00;;;;;;;10.28;70.66;100960.00;5037976;28;20415;-65
2022/05/28 00:37:36;;;;;;;6.77;3.43;;;;;;;10.54;70.51;100969.97;5037650;28;20177;-65
2022/05/28 00:40:03;;;;;;;5.37;2.73;;;;;;;10.65;71.15;100967.50;5038630;28;20413;-63
2022/05/28 00:42:29;;;;;;;7.27;3.20;;;;;;;10.46;71.48;100968.97;5037824;28;20425;-64
2022/05/28 00:44:54;;;;;;;5.13;3.17;;;;;;;11.14;70.31;100958.50;5037866;28;20456;-64
2022/05/28 00:47:20;;;;;;;4.00;3.10;;;;;;;10.81;70.15;100962.44;5038352;28;20419;-65
2022/05/28 00:49:45;;;;;;;7.57;3.30;;;;;;;10.83;70.48;100960.75;5037828;28;20265;-64
2022/05/28 00:52:11;;;;;;;5.90;3.93;;;;;;;10.61;71.46;100973.53;5037793;28;20171;-64
2022/05/28 00:54:46;;;;;;;5.40;3.83;;;;;;;10.59;72.07;100996.06;5038234;28;20427;-65
2022/05/28 00:57:12;;;;;;;5.90;2.90;;;;;;;10.84;71.18;100993.78;5037117;28;20409;-64
2022/05/28 00:59:38;;;;;;;6.23;3.37;;;;;;;10.07;73.14;100993.56;5036996;28;20515;-64
2022/05/28 01:02:24;;;;;;;6.67;4.23;;;;;;;9.94;75.02;100988.16;5037641;28;20762;-64
2022/05/28 01:05:34;;;;;;;4.77;3.10;;;;;;;10.18;74.21;101011.97;5036873;28;20292;-65
2022/05/28 01:08:20;;;;;;;7.30;4.20;;;;;;;9.89;74.42;101017.56;5036537;28;20425;-65
2022/05/28 01:11:23;;;;;;;8.57;3.60;;;;;;;9.63;76.25;100991.94;5037072;28;20384;-64
2022/05/28 01:14:10;;;;;;;7.07;3.80;;;;;;;9.69;75.69;100988.59;5036862;28;20413;-65
2022/05/28 01:16:45;;;;;;;5.47;3.50;;;;;;;9.68;77.40;101000.72;5036919;28;20467;-64
2022/05/28 01:19:35;;;;;;;7.60;3.40;;;;;;;9.90;77.74;100991.56;5037105;28;20474;-64
2022/05/28 01:22:21;;;;;;;10.03;3.63;;;;;;;10.23;75.84;100981.66;5037660;28;20773;-64
2022/05/28 01:25:03;;;;;;;6.10;3.20;;;;;;;9.69;76.77;100980.78;5036893;28;20428;-63
2022/05/28 01:27:31;;;;;;;6.13;3.17;;;;;;;9.77;75.31;100976.59;5037744;28;20642;-65
2022/05/28 01:30:02;;;;;;;5.70;3.00;;;;;;;9.76;75.22;100975.69;5036886;28;20496;-65
2022/05/28 01:32:28;;;;;;;4.07;2.53;;;;;;;9.68;74.77;100972.09;5036836;28;20416;-65
2022/05/28 01:34:53;;;;;;;4.80;3.00;;;;;;;9.59;75.16;100977.13;5037336;28;20536;-64
2022/05/28 01:37:19;;;;;;;5.30;3.40;;;;;;;9.19;76.38;100985.09;5036806;28;20550;-64
2022/05/28 01:39:46;;;;;;;7.77;3.40;;;;;;;9.23;77.62;100978.22;5036911;28;20544;-64
2022/05/28 01:42:13;;;;;;;4.97;2.90;;;;;;;9.62;76.99;100961.59;5036906;28;20419;-64
2022/05/28 01:44:40;;;;;;;3.10;2.80;;;;;;;9.49;76.07;100947.47;5036675;28;20417;-65
2022/05/28 01:47:06;;;;;;;5.23;2.70;;;;;;;9.35;75.40;100942.03;5036556;28;20428;-65
2022/05/28 01:49:32;;;;;;;8.80;3.43;;;;;;;9.62;75.53;100938.16;5038884;28;20421;-65
2022/05/28 01:51:59;;;;;;;7.50;4.23;;;;;;;9.76;74.74;100944.44;5040607;28;20175;-65
2022/05/28 01:54:30;;;;;;;3.03;2.63;;;;;;;9.77;74.93;100935.78;5040722;28;20476;-64
2022/05/28 01:56:56;;;;;;;3.73;2.67;;;;;;;9.77;74.92;100938.41;5040013;28;20510;-65
2022/05/28 01:59:31;;;;;;;3.43;2.60;;;;;;;9.81;75.00;100938.44;5040204;28;20421;-65
2022/05/28 02:01:58;;;;;;;3.97;2.60;;;;;;;9.94;74.82;100937.78;5040477;28;20170;-65
2022/05/28 02:04:24;;;;;;;6.83;3.13;;;;;;;9.69;75.98;100929.59;5040765;28;20424;-63
2022/05/28 02:06:49;;;;;;;6.27;2.93;;;;;;;9.77;75.27;100930.59;5040562;28;20445;-63
2022/05/28 02:09:19;;;;;;;4.97;2.67;;;;;;;9.77;75.58;100929.72;5041227;28;20463;-65
2022/05/28 02:12:17;;;;;;;4.20;2.80;;;;;;;9.93;75.83;100923.00;5039755;28;20166;-65
2022/05/28 02:14:51;;;;;;;2.60;2.30;;;;;;;9.78;75.07;100927.13;5039854;28;20547;-65
2022/05/28 02:17:40;;;;;;;3.27;2.50;;;;;;;9.97;75.78;100929.13;5040415;28;20468;-64
2022/05/28 02:20:36;;;;;;;4.27;2.80;;;;;;;9.83;75.92;100934.16;5039721;28;20417;-64
2022/05/28 02:23:08;;;;;;;5.03;3.20;;;;;;;9.81;76.56;100941.03;5040138;28;20396;-65
2022/05/28 02:25:34;;;;;;;3.63;2.90;;;;;;;10.05;76.16;100956.19;5040719;28;20417;-65
2022/05/28 02:28:01;;;;;;;6.00;3.10;;;;;;;9.87;76.81;100942.00;5040815;28;20837;-64
2022/05/28 02:30:26;;;;;;;7.40;2.60;;;;;;;10.08;77.39;100930.16;5039563;28;20497;-65
2022/05/28 02:33:04;;;;;;;3.93;3.00;;;;;;;9.57;78.27;100924.19;5039851;28;20858;-64
2022/05/28 02:35:29;;;;;;;6.40;3.23;;;;;;;10.04;78.12;100923.16;5040147;28;20208;-64
2022/05/28 02:37:55;;;;;;;5.47;3.57;;;;;;;9.94;77.48;100924.75;5039846;28;20417;-64
2022/05/28 02:40:20;;;;;;;5.77;3.03;;;;;;;10.43;76.16;100924.59;5040045;28;20231;-64
2022/05/28 02:42:46;;;;;;;7.53;3.20;;;;;;;10.14;76.93;100932.88;5039094;28;20178;-65
2022/05/28 02:45:11;;;;;;;7.90;3.23;;;;;;;9.75;77.78;100936.63;5040548;28;20232;-65
2022/05/28 02:47:36;;;;;;;7.60;3.60;;;;;;;10.06;77.43;100935.34;5039863;28;20257;-65
2022/05/28 02:50:02;;;;;;;4.07;2.87;;;;;;;9.82;78.04;100929.78;5039882;28;20179;-65
2022/05/28 02:52:27;;;;;;;8.70;3.53;;;;;;;9.60;78.27;100932.91;5040109;28;20201;-64
2022/05/28 02:54:53;;;;;;;6.27;3.30;;;;;;;9.83;78.26;100929.78;5039583;28;20206;-64
2022/05/28 02:57:18;;;;;;;10.13;3.20;;;;;;;9.87;78.01;100935.94;5039670;28;20179;-65
2022/05/28 02:59:43;;;;;;;9.37;3.53;;;;;;;10.10;77.27;100929.34;5040349;28;20450;-65
2022/05/28 03:02:09;;;;;;;5.10;3.17;;;;;;;9.88;78.09;100929.88;5039394;28;20202;-64
2022/05/28 03:04:34;;;;;;;9.97;4.00;;;;;;;9.84;79.02;100915.06;5039653;28;20206;-65
2022/05/28 03:06:59;;;;;;;9.37;4.20;;;;;;;9.98;78.37;100917.88;5040040;28;20174;-65
2022/05/28 03:09:25;;;;;;;8.37;3.87;;;;;;;9.90;79.37;100921.25;5039635;28;20170;-65
2022/05/28 03:11:50;;;;;;;4.27;3.83;;;;;;;9.77;79.03;100907.16;5039409;28;20186;-65
2022/05/28 03:14:17;;;;;;;7.20;3.63;;;;;;;9.61;79.94;100920.78;5039624;28;20206;-65
2022/05/28 03:16:42;;;;;;;8.67;3.50;;;;;;;10.04;79.20;100928.38;5039134;28;20229;-65
2022/05/28 03:19:08;;;;;;;7.43;3.63;;;;;;;9.75;78.66;100926.19;5039319;28;20527;-65
2022/05/28 03:21:33;;;;;;;8.73;3.77;;;;;;;10.09;79.35;100922.41;5039477;28;20181;-65
2022/05/28 03:24:00;;;;;;;9.40;4.47;;;;;;;10.41;78.50;100926.34;5038800;28;20180;-65
2022/05/28 03:26:27;;;;;;;10.60;4.30;;;;;;;10.53;78.23;100925.63;5038262;28;20181;-65
2022/05/28 03:28:53;;;;;;;12.40;4.40;;;;;;;10.16;78.14;100933.78;5039328;28;20749;-64
2022/05/28 03:31:19;;;;;;;6.93;3.80;;;;;;;10.31;77.86;100932.22;5038346;28;20456;-64
2022/05/28 03:33:44;;;;;;;12.27;4.10;;;;;;;10.23;78.33;100937.34;5038789;28;20439;-64
2022/05/28 03:36:10;;;;;;;9.23;4.00;;;;;;;10.21;79.36;100939.03;5039282;28;20780;-64
2022/05/28 03:38:36;;;;;;;12.87;4.90;;;;;;;10.41;78.36;100949.78;5038759;28;20175;-63
2022/05/28 03:41:02;;;;;;;10.10;4.40;;;;;;;10.40;78.65;100945.41;5038809;28;20184;-64
2022/05/28 03:43:28;;;;;;;12.47;4.20;;;;;;;10.47;78.71;100951.59;5039124;28;20170;-64
2022/05/28 03:45:53;;;;;;;9.50;4.07;;;;;;;10.61;78.62;100942.22;5038872;28;20507;-64
2022/05/28 03:48:19;;;;;;;9.83;4.10;;;;;;;11.07;76.66;100942.75;5038656;28;20216;-64
2022/05/28 03:50:44;;;;;;;7.03;3.63;;;;;;;11.60;74.32;100932.84;5038375;28;20185;-65
2022/05/28 03:53:09;;;;;;;5.77;3.67;;;;;;;12.59;71.52;100938.72;5038453;28;20190;-64
2022/05/28 03:55:36;;;;;;;9.03;4.10;;;;;;;12.70;68.92;100937.03;5038478;28;20218;-64
2022/05/28 03:58:02;;;;;;;5.70;3.77;;;;;;;13.10;67.53;100936.28;5039003;28;20220;-64
2022/05/28 04:00:27;;;;;;;10.30;5.20;;;;;;;13.44;67.00;100924.16;5038652;28;20425;-64
2022/05/28 04:02:53;;;;;;;4.83;3.30;;;;;;;13.24;67.37;100934.56;5038380;28;20220;-65
2022/05/28 04:05:18;;;;;;;6.57;3.30;;;;;;;13.85;65.01;100932.00;5038838;28;20244;-64
2022/05/28 04:07:44;;;;;;;5.87;3.00;;;;;;;13.71;65.57;100935.50;5038338;28;20170;-64
2022/05/28 04:10:09;;;;;;;4.80;3.00;;;;;;;14.23;63.62;100931.06;5038280;28;20214;-64
2022/05/28 04:12:35;;;;;;;11.57;3.60;;;;;;;14.28;62.86;100934.56;5038061;28;20170;-65
2022/05/28 04:15:00;;;;;;;5.60;3.40;;;;;;;13.91;63.52;100929.38;5037308;28;20220;-64
2022/05/28 04:17:26;;;;;;;6.73;3.20;;;;;;;12.81;66.82;100950.16;5037957;28;20560;-64
2022/05/28 04:19:51;;;;;;;7.00;4.00;;;;;;;11.71;71.01;100957.28;5038707;28;20421;-64
2022/05/28 04:22:17;;;;;;;7.03;3.80;;;;;;;11.52;72.99;100958.00;5038096;28;20586;-64
2022/05/28 04:24:42;;;;;;;8.10;3.70;;;;;;;11.17;74.68;100954.16;5037393;28;20559;-64
2022/05/28 04:27:08;;;;;;;7.60;3.43;;;;;;;11.29;74.82;100941.25;5038495;28;20536;-65
2022/05/28 04:29:33;;;;;;;6.87;3.50;;;;;;;11.70;74.60;100950.31;5037917;28;20555;-64
2022/05/28 04:31:59;;;;;;;7.43;3.67;;;;;;;11.46;74.64;100949.25;5037925;28;20173;-64
2022/05/28 04:34:24;;;;;;;6.30;3.60;;;;;;;11.79;72.94;100947.78;5038343;28;20206;-64
2022/05/28 04:36:49;;;;;;;9.23;4.20;;;;;;;12.17;72.26;100940.25;5037981;28;20208;-65
2022/05/28 04:39:15;;;;;;;5.50;3.40;;;;;;;11.67;72.64;100947.69;5037960;28;20532;-65
2022/05/28 04:41:40;;;;;;;7.77;3.63;;;;;;;12.08;72.79;100944.56;5037802;28;20406;-64
2022/05/28 04:44:05;;;;;;;7.40;3.33;;;;;;;12.99;70.05;100941.50;5037636;28;20189;-65
2022/05/28 04:46:31;;;;;;;6.47;3.63;;;;;;;12.29;70.44;100943.78;5037887;28;20178;-64
2022/05/28 04:48:57;;;;;;;6.83;3.50;;;;;;;12.76;69.63;100942.28;5038283;28;20231;-64
2022/05/28 04:51:23;;;;;;;6.47;3.53;;;;;;;14.26;65.88;100944.16;5037730;28;20178;-65
2022/05/28 04:53:48;;;;;;;6.77;3.00;;;;;;;14.83;63.13;100933.53;5037550;28;20446;-65
2022/05/28 04:56:14;;;;;;;5.17;3.77;;;;;;;14.73;63.18;100939.69;5038516;28;20252;-65
2022/05/28 04:58:40;;;;;;;4.80;3.10;;;;;;;16.37;58.34;100928.78;5037063;28;20174;-65
2022/05/28 05:01:05;;;;;;;6.63;3.50;;;;;;;17.04;54.61;100930.66;5037752;28;20571;-65
2022/05/28 05:03:32;;;;;;;5.77;3.00;;;;;;;16.88;54.10;100929.94;5037894;28;20420;-66
2022/05/28 05:05:57;;;;;;;7.07;3.40;;;;;;;17.22;53.63;100940.03;5037694;28;20175;-65
2022/05/28 05:08:23;;;;;;;5.43;3.33;;;;;;;17.47;51.96;100933.50;5037640;28;20679;-64
2022/05/28 05:10:48;;;;;;;9.33;3.47;;;;;;;18.60;50.70;100936.75;5038269;28;20177;-65
2022/05/28 05:13:14;;;;;;;5.70;3.37;;;;;;;18.20;51.42;100937.56;5037634;28;20174;-65
2022/05/28 05:15:39;;;;;;;7.27;3.23;;;;;;;16.84;53.83;100940.53;5036660;28;20208;-65
2022/05/28 05:18:05;;;;;;;5.50;3.47;;;;;;;17.67;53.24;100938.44;5038113;28;20262;-65
2022/05/28 05:20:30;;;;;;;5.77;3.50;;;;;;;17.79;52.26;100937.38;5037461;28;20214;-65
2022/05/28 05:22:56;;;;;;;5.67;3.43;;;;;;;17.62;52.29;100939.44;5037574;28;20253;-65
2022/05/28 05:25:22;;;;;;;9.03;3.47;;;;;;;18.14;51.30;100941.19;5041951;28;20527;-65
2022/05/28 05:27:48;;;;;;;7.30;3.87;;;;;;;18.08;51.54;100946.56;5041260;28;20511;-65
2022/05/28 05:30:13;;;;;;;7.47;4.00;;;;;;;17.68;54.30;100955.13;5041268;28;20174;-65
2022/05/28 05:32:38;;;;;;;5.83;3.60;;;;;;;19.21;49.88;100954.84;5041512;28;20170;-65
2022/05/28 05:35:04;;;;;;;10.90;3.80;;;;;;;20.01;47.59;100944.09;5041113;28;20228;-65
2022/05/28 05:37:30;;;;;;;6.97;3.90;;;;;;;19.27;49.63;100959.16;5041138;28;20444;-65
2022/05/28 05:39:56;;;;;;;7.27;4.33;;;;;;;17.44;53.21;100948.47;5040933;28;20182;-64
2022/05/28 05:42:21;;;;;;;5.77;3.87;;;;;;;16.74;56.79;100959.94;5040982;28;20527;-65
2022/05/28 05:44:46;;;;;;;6.80;4.30;;;;;;;15.73;59.21;100967.94;5041069;28;20181;-65
2022/05/28 05:47:12;;;;;;;11.60;4.23;;;;;;;15.66;59.75;100968.91;5041513;28;20532;-65
2022/05/28 05:49:37;;;;;;;10.83;5.70;;;;;;;15.39;60.73;100970.81;5040928;28;20257;-65
2022/05/28 05:52:04;;;;;;;8.40;3.90;;;;;;;14.55;62.56;100987.84;5040793;28;20185;-64
2022/05/28 05:54:29;;;;;;;9.83;3.93;;;;;;;14.34;60.99;100986.97;5041176;28;20506;-64
2022/05/28 05:56:55;;;;;;;8.27;4.00;;;;;;;13.85;62.34;100994.91;5040682;28;20504;-64
2022/05/28 05:59:21;;;;;;;5.20;3.13;;;;;;;15.23;58.75;100990.19;5040642;28;20540;-65
2022/05/28 06:01:46;;;;;;;4.53;3.10;;;;;;;15.39;55.00;100991.00;5041258;28;20431;-65
2022/05/28 06:04:11;;;;;;;6.90;3.50;;;;;;;18.23;48.59;100984.13;5040407;28;20428;-65
2022/05/28 06:06:37;;;;;;;7.47;3.23;;;;;;;16.97;49.80;100982.53;5040643;28;20175;-65
2022/05/28 06:09:02;;;;;;;7.60;3.47;;;;;;;16.04;53.51;100988.75;5041026;28;20174;-65
2022/05/28 06:11:28;;;;;;;6.70;3.40;;;;;;;16.33;53.34;100975.34;5040461;28;20608;-65
2022/05/28 06:13:53;;;;;;;12.13;5.97;;;;;;;16.61;52.76;100984.69;5040248;28;20200;-65
2022/05/28 06:16:18;;;;;;;11.23;6.47;;;;;;;16.85;51.43;100980.88;5040602;28;20249;-64
2022/05/28 06:18:44;;;;;;;7.50;4.13;;;;;;;16.07;52.80;100986.09;5040390;28;20202;-65
2022/05/28 06:21:10;;;;;;;9.50;3.70;;;;;;;16.99;50.86;100981.63;5040342;28;20516;-64
2022/05/28 06:23:35;;;;;;;6.37;3.40;;;;;;;18.81;47.41;100982.97;5040267;28;20205;-65
2022/05/28 06:26:03;;;;;;;11.07;4.27;;;;;;;19.48;43.65;100978.91;5040160;28;20185;-65
2022/05/28 06:28:29;;;;;;;6.80;4.20;;;;;;;20.96;41.77;100977.69;5040556;28;20278;-64
2022/05/28 06:30:59;;;;;;;7.73;3.80;;;;;;;20.57;41.64;100967.31;5040184;28;20811;-65
2022/05/28 06:33:24;;;;;;;7.63;3.80;;;;;;;21.50;39.74;100965.41;5039980;28;20559;-64
2022/05/28 06:35:55;;;;;;;7.60;3.83;;;;;;;20.29;41.56;100972.50;5039660;28;20496;-64
2022/05/28 06:38:20;;;;;;;11.90;3.80;;;;;;;21.50;39.78;100964.53;5039913;28;20265;-65
2022/05/28 06:40:46;;;;;;;6.00;3.40;;;;;;;22.16;37.52;100965.00;5040137;28;20746;-64
2022/05/28 06:43:11;;;;;;;9.33;3.80;;;;;;;19.18;43.03;100976.06;5040123;28;20170;-65
2022/05/28 06:45:36;;;;;;;13.40;4.40;;;;;;;18.40;45.33;100981.16;5039844;28;20490;-65
2022/05/28 06:48:01;;;;;;;8.43;3.90;;;;;;;17.27;47.03;100986.50;5039835;28;20170;-65
2022/05/28 06:53:10;;;;;;;6.20;3.80;;;;;;;20.17;40.83;100977.22;5039563;28;20220;-66
2022/05/28 06:55:37;;;;;;;12.47;4.20;;;;;;;20.66;39.05;100968.81;5039504;28;20764;-65
2022/05/28 06:58:03;;;;;;;7.87;3.70;;;;;;;22.61;36.28;100971.41;5039631;28;20574;-65
2022/05/28 07:00:28;;;;;;;8.70;3.90;;;;;;;22.52;36.03;100955.78;5039532;28;20512;-65
2022/05/28 07:02:54;;;;;;;7.57;3.67;;;;;;;22.12;36.39;100951.88;5039961;28;20722;-65
2022/05/28 07:05:19;;;;;;;8.40;3.80;;;;;;;21.68;36.71;100956.00;5039260;28;20184;-65
2022/05/28 07:07:44;;;;;;;10.50;4.00;;;;;;;21.75;36.79;100954.00;5038831;28;20170;-65
2022/05/28 07:10:10;;;;;;;6.23;4.00;;;;;;;22.90;35.12;100947.31;5040005;28;20229;-65
2022/05/28 07:12:35;;;;;;;5.57;3.60;;;;;;;22.04;35.63;100962.75;5039137;28;20185;-65
2022/05/28 07:15:01;;;;;;;6.60;3.67;;;;;;;22.22;35.35;100958.59;5038237;28;20210;-65
2022/05/28 07:17:26;;;;;;;5.47;3.80;;;;;;;21.81;36.01;100960.88;5039153;28;20280;-66
2022/05/28 07:19:51;;;;;;;8.60;4.30;;;;;;;19.50;39.86;100980.59;5039206;28;20269;-65
2022/05/28 07:22:17;;;;;;;6.00;3.60;;;;;;;20.87;37.86;100967.34;5039407;28;20453;-66
2022/05/28 07:24:43;;;;;;;10.67;4.30;;;;;;;20.92;37.40;100967.22;5039084;28;20174;-65
2022/05/28 07:27:08;;;;;;;8.17;3.63;;;;;;;21.12;38.24;100964.84;5039056;28;20181;-65
2022/05/28 07:29:33;;;;;;;9.00;4.17;;;;;;;18.47;43.71;100988.09;5039345;28;20194;-64
2022/05/28 07:31:58;;;;;;;10.97;5.37;;;;;;;17.90;45.53;100992.56;5038914;28;20182;-64
2022/05/28 07:34:24;;;;;;;6.83;3.70;;;;;;;16.67;50.24;101003.06;5038801;28;20296;-65
2022/05/28 07:36:49;;;;;;;9.40;4.30;;;;;;;15.52;51.41;101012.78;5039265;28;20178;-65
2022/05/28 07:39:15;;;;;;;13.53;3.90;;;;;;;15.50;52.78;101025.94;5038818;28;20422;-64
2022/05/28 07:41:41;;;;;;;5.47;3.67;;;;;;;16.17;51.36;101021.09;5038671;28;20185;-65
2022/05/28 07:44:06;;;;;;;7.17;3.50;;;;;;;17.04;50.17;101023.69;5039130;28;20392;-64
2022/05/28 07:46:33;;;;;;;7.63;4.37;;;;;;;18.76;45.51;101034.16;5038019;28;20312;-65
2022/05/28 07:48:59;;;;;;;7.80;4.20;;;;;;;17.39;48.75;101026.75;5038325;28;20483;-65
2022/05/28 07:51:25;;;;;;;7.40;3.73;;;;;;;18.28;47.48;101022.72;5038329;28;20413;-64
2022/05/28 07:53:50;;;;;;;12.13;4.30;;;;;;;18.44;45.80;101019.78;5038342;28;20555;-66
2022/05/28 07:56:16;;;;;;;7.57;3.97;;;;;;;17.26;49.18;101021.63;5038468;28;20185;-66
2022/05/28 07:58:42;;;;;;;10.03;4.30;;;;;;;16.08;52.76;101023.81;5038937;28;20174;-65
2022/05/28 08:01:16;;;;;;;9.87;4.40;;;;;;;16.20;53.14;101020.19;5037671;28;20436;-65
2022/05/28 08:03:41;;;;;;;7.47;3.87;;;;;;;17.32;50.18;101021.56;5037702;28;20170;-66
2022/05/28 08:06:06;;;;;;;10.63;5.33;;;;;;;18.56;46.61;101016.91;5038902;28;20662;-64
2022/05/28 08:08:32;;;;;;;6.70;3.60;;;;;;;18.34;45.91;101013.81;5038274;28;20245;-65
2022/05/28 08:10:57;;;;;;;9.20;4.03;;;;;;;20.12;42.81;101013.53;5038357;28;20170;-65
2022/05/28 08:13:23;;;;;;;10.00;4.03;;;;;;;21.16;39.38;101003.59;5037672;28;20477;-65
2022/05/28 08:15:51;;;;;;;7.50;4.60;;;;;;;21.94;38.71;101002.03;5038145;28;20226;-65
2022/05/28 08:18:18;;;;;;;11.23;3.80;;;;;;;22.67;37.06;100997.72;5038283;28;20696;-66
2022/05/28 08:23:27;;;;;;;6.30;4.07;;;;;;;22.49;36.88;101001.06;5037959;28;20619;-66
2022/05/28 08:25:53;;;;;;;7.70;3.90;;;;;;;21.80;38.23;100999.00;5037979;28;20449;-64
2022/05/28 08:28:19;;;;;;;5.70;3.80;;;;;;;21.60;37.82;100989.03;5038341;28;20285;-64
2022/05/28 08:30:44;;;;;;;6.80;4.17;;;;;;;21.46;38.35;101000.91;5038156;28;20444;-65
2022/05/28 08:33:11;;;;;;;7.43;4.17;;;;;;;21.52;38.19;100992.75;5038290;28;20413;-65
2022/05/28 08:35:37;;;;;;;7.10;4.13;;;;;;;19.18;42.72;101003.34;5037923;28;20607;-66
2022/05/28 08:38:05;;;;;;;9.07;4.10;;;;;;;17.92;45.98;101016.31;5038051;28;20432;-65
2022/05/28 08:40:32;;;;;;;12.50;4.80;;;;;;;18.40;45.43;101012.84;5037720;28;20417;-65
2022/05/28 08:42:58;;;;;;;13.90;5.13;;;;;;;17.43;46.64;101023.19;5037111;28;20881;-65
2022/05/28 08:45:23;;;;;;;10.30;4.67;;;;;;;18.20;44.73;101021.09;5037758;28;20504;-66
2022/05/28 08:47:50;;;;;;;9.93;4.70;;;;;;;19.86;41.45;101008.88;5038460;28;20187;-66
2022/05/28 08:50:15;;;;;;;8.80;4.60;;;;;;;20.31;38.84;101005.97;5037275;28;20193;-65
2022/05/28 08:52:45;;;;;;;9.10;4.50;;;;;;;19.64;40.35;101000.56;5037151;28;20432;-65
2022/05/28 08:55:16;;;;;;;8.33;4.67;;;;;;;19.44;39.97;101014.25;5038282;28;20198;-65
2022/05/28 08:57:54;;;;;;;6.60;3.93;;;;;;;18.13;43.18;101021.22;5036987;28;20429;-66
2022/05/28 09:00:40;;;;;;;7.93;4.10;;;;;;;16.98;49.61;101052.72;5041845;28;20486;-65
2022/05/28 09:03:08;;;;;;;7.30;3.70;;;;;;;15.75;54.21;101067.81;5040831;28;20413;-64
2022/05/28 09:05:44;;;;;;;8.80;4.37;;;;;;;15.37;53.54;101074.16;5041830;28;20417;-65
2022/05/28 09:08:10;;;;;;;7.83;3.80;;;;;;;15.91;53.04;101072.16;5041710;28;20729;-65
2022/05/28 09:10:41;;;;;;;8.80;4.13;;;;;;;15.24;54.01;101083.88;5041032;28;20504;-64
2022/05/28 09:13:21;;;;;;;6.13;4.20;;;;;;;16.99;50.49;101068.53;5040803;28;20264;-64
2022/05/28 09:15:46;;;;;;;10.17;3.87;;;;;;;18.64;45.86;101051.97;5040795;28;20434;-65
2022/05/28 09:18:12;;;;;;;6.90;3.50;;;;;;;19.65;43.15;101055.22;5041592;28;20423;-65
2022/05/28 09:20:40;;;;;;;8.33;3.70;;;;;;;19.57;42.92;101044.81;5041385;28;20174;-65
2022/05/28 09:23:05;;;;;;;7.50;4.20;;;;;;;19.18;44.08;101045.63;5041200;28;20646;-65
2022/05/28 09:25:37;;;;;;;7.00;3.63;;;;;;;21.57;38.18;101044.81;5041401;28;20416;-66
2022/05/28 09:28:43;;;;;;;7.43;3.77;;;;;;;21.10;37.39;101055.94;5024386;28;20224;-66
2022/05/28 09:31:30;;;;;;;9.50;4.10;;;;;;;20.94;37.97;101050.19;5041222;28;20530;-65
2022/05/28 09:34:01;;;;;;;6.87;4.00;;;;;;;21.12;38.27;101039.06;5041096;28;20464;-66
2022/05/28 09:36:46;;;;;;;8.93;4.43;;;;;;;19.52;40.73;101050.22;5040350;28;20421;-65
2022/05/28 09:39:43;;;;;;;7.17;4.03;;;;;;;18.18;43.58;101056.34;5041253;28;20456;-65
2022/05/28 09:42:20;;;;;;;14.93;5.40;;;;;;;17.27;46.17;101069.94;5040334;28;20471;-65
2022/05/28 09:45:20;;;;;;;6.17;3.80;;;;;;;16.45;47.84;101071.69;5041036;28;20417;-64
2022/05/28 09:47:48;;;;;;;9.60;4.30;;;;;;;15.57;49.21;101087.22;5040698;28;20455;-65
2022/05/28 09:50:40;;;;;;;10.63;4.10;;;;;;;16.26;48.06;101075.38;5040891;28;20463;-65
2022/05/28 09:55:59;;;;;;;10.70;4.63;;;;;;;17.58;44.58;101069.53;5040842;28;20847;-65
2022/05/28 09:58:28;;;;;;;11.33;4.10;;;;;;;18.13;42.83;101073.13;5040181;28;20799;-65
2022/05/28 10:01:07;;;;;;;8.83;4.00;;;;;;;19.35;40.87;101063.78;5040710;28;20822;-65
2022/05/28 10:06:20;;;;;;;6.87;4.20;;;;;;;18.15;41.67;101069.56;5040148;28;20428;-65
2022/05/28 10:08:45;;;;;;;10.20;4.07;;;;;;;17.93;41.88;101070.81;5040438;28;20479;-65
2022/05/28 10:11:15;;;;;;;7.90;6.50;;;;;;;17.06;43.22;101073.72;5038539;28;20463;-64
2022/05/28 10:13:49;;;;;;;5.80;3.97;;;;;;;17.28;43.23;101082.25;5040693;28;20439;-65
2022/05/28 10:16:20;;;;;;;6.10;3.83;;;;;;;16.65;45.38;101086.41;5040234;28;20486;-65
2022/05/28 10:18:50;;;;;;;10.40;4.70;;;;;;;16.46;46.93;101101.50;5039711;28;20467;-65
2022/05/28 10:21:26;;;;;;;10.87;4.80;;;;;;;15.49;50.93;101103.91;5039875;28;20412;-64
2022/05/28 10:23:53;;;;;;;11.07;4.53;;;;;;;15.99;50.51;101098.38;5040241;28;20423;-64
2022/05/28 10:26:38;;;;;;;8.00;3.63;;;;;;;16.58;50.55;101095.28;5039453;28;20781;-64
2022/05/28 10:29:05;;;;;;;9.73;3.70;;;;;;;16.88;49.50;101082.69;5040346;28;20407;-65
2022/05/28 10:31:36;;;;;;;11.90;4.77;;;;;;;17.22;48.39;101088.44;5040232;28;20421;-66
2022/05/28 10:34:02;;;;;;;10.67;4.80;;;;;;;16.30;50.30;101079.72;5039298;28;20456;-64
2022/05/28 10:36:30;;;;;;;9.83;4.03;;;;;;;15.11;53.21;101083.94;5039887;28;20417;-65
2022/05/28 10:39:13;;;;;;;9.27;4.23;;;;;;;15.02;53.55;101104.06;5039337;28;20174;-65
2022/05/28 10:41:41;;;;;;;12.63;6.40;;;;;;;15.20;51.83;101097.91;5039264;28;20660;-65
2022/05/28 10:44:07;;;;;;;12.93;4.33;;;;;;;15.41;51.55;101091.66;5039639;28;20430;-65
2022/05/28 10:46:36;;;;;;;10.70;4.40;;;;;;;15.59;50.83;101088.09;5039743;28;20815;-65
2022/05/28 10:49:21;;;;;;;12.60;3.90;;;;;;;16.21;48.38;101091.22;5039703;28;20174;-65
2022/05/28 10:52:13;;;;;;;7.03;3.73;;;;;;;16.50;47.99;101087.44;5039003;28;20383;-64
2022/05/28 10:55:10;;;;;;;8.70;3.83;;;;;;;18.37;44.01;101074.47;5039789;28;20435;-65
2022/05/28 10:57:54;;;;;;;7.03;4.10;;;;;;;18.54;43.23;101079.47;5039726;28;20421;-65
2022/05/28 11:00:26;;;;;;;7.40;4.90;;;;;;;20.16;40.76;101062.81;5039740;28;20579;-65
2022/05/28 11:03:39;;;;;;;9.10;4.30;;;;;;;18.28;43.25;101067.59;5022253;28;20413;-65
2022/05/28 11:06:22;;;;;;;6.73;3.53;;;;;;;17.45;45.40;101071.47;5038905;28;20736;-65
2022/05/28 11:09:10;;;;;;;5.60;3.50;;;;;;;16.64;49.08;101088.19;5039344;28;20682;-65
2022/05/28 11:12:03;;;;;;;9.20;4.10;;;;;;;16.19;50.78;101087.69;5039493;28;20413;-64
2022/05/28 11:15:13;;;;;;;6.93;3.80;;;;;;;15.98;51.25;101104.53;5038490;28;20495;-65
2022/05/28 11:17:54;;;;;;;7.23;3.70;;;;;;;17.03;49.35;101098.31;5039361;28;20723;-65
2022/05/28 11:20:19;;;;;;;9.40;3.47;;;;;;;17.03;48.09;101098.31;5039425;28;20412;-65
2022/05/28 11:22:54;;;;;;;7.87;4.43;;;;;;;18.12;46.01;101093.34;5038734;28;20421;-64
2022/05/28 11:25:57;;;;;;;10.10;4.40;;;;;;;17.15;48.62;101092.91;5039089;28;20165;-66
2022/05/28 11:28:40;;;;;;;7.10;3.63;;;;;;;15.74;51.84;101103.75;5038386;28;20440;-64
2022/05/28 11:31:31;;;;;;;6.40;3.80;;;;;;;15.09;55.42;101111.06;5038452;28;20791;-65
2022/05/28 11:34:02;;;;;;;11.13;4.70;;;;;;;14.85;58.80;101112.88;5037844;28;20479;-65
2022/05/28 11:36:36;;;;;;;7.63;4.30;;;;;;;15.35;59.12;101120.59;5038232;28;20419;-65
2022/05/28 11:39:25;;;;;;;11.70;4.80;;;;;;;15.65;58.61;101125.72;5038245;28;20409;-65
2022/05/28 11:41:56;;;;;;;15.33;5.20;;;;;;;14.93;61.42;101131.22;5038087;28;20421;-64
2022/05/28 11:44:36;;;;;;;12.20;5.47;;;;;;;15.18;61.73;101125.91;5021744;28;20653;-64
2022/05/28 11:47:09;;;;;;;13.83;5.00;;;;;;;14.44;63.45;101121.63;5038915;28;20416;-64